sensor_id;sensor_type;location;lat;lon;timestamp;P1;durP1;ratioP1;P2;durP2;ratioP2
47669;SDS011;33408;52.062;11.722;2022-12-18T00:02:11;61.50;;;34.55;;
47669;SDS011;33408;52.062;11.722;2022-12-18T00:04:39;77.90;;;33.63;;
47669;SDS011;33408;52.062;11.722;2022-12-18T00:07:06;56.92;;;31.92;;
47669;SDS011;33408;52.062;11.722;2022-12-18T00:09:33;73.30;;;34.25;;
47669;SDS011;33408;52.062;11.722;2022-12-18T00:11:59;70.80;;;35.70;;
47669;SDS011;33408;52.062;11.722;2022-12-18T00:14:26;69.32;;;32.08;;
47669;SDS011;33408;52.062;11.722;2022-12-18T00:16:52;67.53;;;31.85;;
47669;SDS011;33408;52.062;11.722;2022-12-18T00:19:19;60.15;;;31.83;;
47669;SDS011;33408;52.062;11.722;2022-12-18T00:21:47;64.10;;;31.20;;
47669;SDS011;33408;52.062;11.722;2022-12-18T00:24:13;63.78;;;31.67;;
47669;SDS011;33408;52.062;11.722;2022-12-18T00:26:40;91.70;;;37.58;;
47669;SDS011;33408;52.062;11.722;2022-12-18T00:29:07;67.78;;;35.63;;
47669;SDS011;33408;52.062;11.722;2022-12-18T00:31:36;69.05;;;35.63;;
47669;SDS011;33408;52.062;11.722;2022-12-18T00:34:03;68.03;;;35.22;;
47669;SDS011;33408;52.062;11.722;2022-12-18T00:36:31;72.55;;;34.75;;
47669;SDS011;33408;52.062;11.722;2022-12-18T00:39:02;67.22;;;33.53;;
47669;SDS011;33408;52.062;11.722;2022-12-18T00:41:29;73.07;;;35.28;;
47669;SDS011;33408;52.062;11.722;2022-12-18T00:44:14;80.13;;;33.08;;
47669;SDS011;33408;52.062;11.722;2022-12-18T00:46:42;73.35;;;35.47;;
47669;SDS011;33408;52.062;11.722;2022-12-18T00:49:13;71.35;;;36.72;;
47669;SDS011;33408;52.062;11.722;2022-12-18T00:51:40;65.35;;;33.15;;
47669;SDS011;33408;52.062;11.722;2022-12-18T00:54:09;57.63;;;32.85;;
47669;SDS011;33408;52.062;11.722;2022-12-18T00:56:36;65.22;;;32.42;;
47669;SDS011;33408;52.062;11.722;2022-12-18T00:59:03;73.85;;;34.97;;
47669;SDS011;33408;52.062;11.722;2022-12-18T01:01:30;63.92;;;33.88;;
47669;SDS011;33408;52.062;11.722;2022-12-18T01:03:57;58.78;;;32.65;;
47669;SDS011;33408;52.062;11.722;2022-12-18T01:06:25;67.80;;;33.58;;
47669;SDS011;33408;52.062;11.722;2022-12-18T01:08:51;69.05;;;35.83;;
47669;SDS011;33408;52.062;11.722;2022-12-18T01:11:20;67.78;;;34.55;;
47669;SDS011;33408;52.062;11.722;2022-12-18T01:13:47;81.65;;;35.47;;
47669;SDS011;33408;52.062;11.722;2022-12-18T01:16:14;70.60;;;34.10;;
47669;SDS011;33408;52.062;11.722;2022-12-18T01:18:43;68.72;;;34.78;;
47669;SDS011;33408;52.062;11.722;2022-12-18T01:21:10;69.88;;;37.05;;
47669;SDS011;33408;52.062;11.722;2022-12-18T01:23:38;63.22;;;34.42;;
47669;SDS011;33408;52.062;11.722;2022-12-18T01:26:05;68.68;;;36.88;;
47669;SDS011;33408;52.062;11.722;2022-12-18T01:28:34;80.47;;;38.10;;
47669;SDS011;33408;52.062;11.722;2022-12-18T01:31:13;76.10;;;35.20;;
47669;SDS011;33408;52.062;11.722;2022-12-18T01:33:42;91.65;;;36.35;;
47669;SDS011;33408;52.062;11.722;2022-12-18T01:36:14;75.47;;;33.58;;
47669;SDS011;33408;52.062;11.722;2022-12-18T01:38:42;62.35;;;35.38;;
47669;SDS011;33408;52.062;11.722;2022-12-18T01:41:09;79.72;;;37.25;;
47669;SDS011;33408;52.062;11.722;2022-12-18T01:43:48;63.45;;;34.83;;
47669;SDS011;33408;52.062;11.722;2022-12-18T01:46:17;67.82;;;34.92;;
47669;SDS011;33408;52.062;11.722;2022-12-18T01:48:45;92.65;;;36.50;;
47669;SDS011;33408;52.062;11.722;2022-12-18T01:51:14;71.38;;;36.85;;
47669;SDS011;33408;52.062;11.722;2022-12-18T01:53:41;70.03;;;35.10;;
47669;SDS011;33408;52.062;11.722;2022-12-18T01:56:11;72.65;;;35.65;;
47669;SDS011;33408;52.062;11.722;2022-12-18T01:58:41;90.68;;;39.65;;
47669;SDS011;33408;52.062;11.722;2022-12-18T02:01:16;69.07;;;37.92;;
47669;SDS011;33408;52.062;11.722;2022-12-18T02:03:43;74.97;;;36.13;;
47669;SDS011;33408;52.062;11.722;2022-12-18T02:06:13;70.70;;;33.83;;
47669;SDS011;33408;52.062;11.722;2022-12-18T02:08:45;71.60;;;37.67;;
47669;SDS011;33408;52.062;11.722;2022-12-18T02:11:18;76.15;;;35.33;;
47669;SDS011;33408;52.062;11.722;2022-12-18T02:13:56;74.97;;;38.28;;
47669;SDS011;33408;52.062;11.722;2022-12-18T02:16:34;66.05;;;35.72;;
47669;SDS011;33408;52.062;11.722;2022-12-18T02:19:20;88.53;;;40.30;;
47669;SDS011;33408;52.062;11.722;2022-12-18T02:22:07;68.03;;;36.15;;
47669;SDS011;33408;52.062;11.722;2022-12-18T02:24:52;105.80;;;39.17;;
47669;SDS011;33408;52.062;11.722;2022-12-18T02:27:27;78.57;;;37.65;;
47669;SDS011;33408;52.062;11.722;2022-12-18T02:29:56;67.78;;;37.53;;
47669;SDS011;33408;52.062;11.722;2022-12-18T02:32:27;68.13;;;37.95;;
47669;SDS011;33408;52.062;11.722;2022-12-18T02:34:57;52.78;;;30.30;;
47669;SDS011;33408;52.062;11.722;2022-12-18T02:37:27;80.70;;;38.60;;
47669;SDS011;33408;52.062;11.722;2022-12-18T02:39:56;80.38;;;38.60;;
47669;SDS011;33408;52.062;11.722;2022-12-18T02:42:24;73.85;;;38.78;;
47669;SDS011;33408;52.062;11.722;2022-12-18T02:44:56;86.32;;;40.33;;
47669;SDS011;33408;52.062;11.722;2022-12-18T02:47:24;86.63;;;40.45;;
47669;SDS011;33408;52.062;11.722;2022-12-18T02:49:57;81.68;;;40.10;;
47669;SDS011;33408;52.062;11.722;2022-12-18T02:52:31;90.35;;;42.45;;
47669;SDS011;33408;52.062;11.722;2022-12-18T02:55:08;88.00;;;41.20;;
47669;SDS011;33408;52.062;11.722;2022-12-18T02:57:47;79.65;;;40.95;;
47669;SDS011;33408;52.062;11.722;2022-12-18T03:00:17;81.45;;;41.28;;
47669;SDS011;33408;52.062;11.722;2022-12-18T03:02:47;83.63;;;42.03;;
47669;SDS011;33408;52.062;11.722;2022-12-18T03:05:21;84.57;;;41.78;;
47669;SDS011;33408;52.062;11.722;2022-12-18T03:07:53;87.75;;;43.10;;
47669;SDS011;33408;52.062;11.722;2022-12-18T03:10:24;78.28;;;40.83;;
47669;SDS011;33408;52.062;11.722;2022-12-18T03:12:56;85.32;;;42.17;;
47669;SDS011;33408;52.062;11.722;2022-12-18T03:15:28;78.07;;;39.80;;
47669;SDS011;33408;52.062;11.722;2022-12-18T03:18:02;82.03;;;40.38;;
47669;SDS011;33408;52.062;11.722;2022-12-18T03:20:34;87.65;;;41.30;;
47669;SDS011;33408;52.062;11.722;2022-12-18T03:23:04;93.15;;;41.30;;
47669;SDS011;33408;52.062;11.722;2022-12-18T03:25:35;93.30;;;43.20;;
47669;SDS011;33408;52.062;11.722;2022-12-18T03:28:09;92.10;;;43.35;;
47669;SDS011;33408;52.062;11.722;2022-12-18T03:30:40;84.50;;;43.08;;
47669;SDS011;33408;52.062;11.722;2022-12-18T03:33:10;83.53;;;42.75;;
47669;SDS011;33408;52.062;11.722;2022-12-18T03:35:44;91.03;;;44.35;;
47669;SDS011;33408;52.062;11.722;2022-12-18T03:38:11;87.75;;;44.45;;
47669;SDS011;33408;52.062;11.722;2022-12-18T03:40:42;92.97;;;45.92;;
47669;SDS011;33408;52.062;11.722;2022-12-18T03:43:18;102.57;;;46.72;;
47669;SDS011;33408;52.062;11.722;2022-12-18T03:45:51;102.10;;;44.83;;
47669;SDS011;33408;52.062;11.722;2022-12-18T03:48:21;103.32;;;45.65;;
47669;SDS011;33408;52.062;11.722;2022-12-18T03:50:56;102.32;;;42.45;;
47669;SDS011;33408;52.062;11.722;2022-12-18T03:53:28;79.28;;;41.13;;
47669;SDS011;33408;52.062;11.722;2022-12-18T03:56:02;74.95;;;40.80;;
47669;SDS011;33408;52.062;11.722;2022-12-18T03:58:32;75.75;;;39.42;;
47669;SDS011;33408;52.062;11.722;2022-12-18T04:01:02;89.40;;;41.65;;
47669;SDS011;33408;52.062;11.722;2022-12-18T04:03:35;77.80;;;38.40;;
47669;SDS011;33408;52.062;11.722;2022-12-18T04:06:02;85.18;;;41.22;;
47669;SDS011;33408;52.062;11.722;2022-12-18T04:08:30;81.10;;;40.28;;
47669;SDS011;33408;52.062;11.722;2022-12-18T04:10:59;75.57;;;39.88;;
47669;SDS011;33408;52.062;11.722;2022-12-18T04:13:28;80.97;;;40.60;;
47669;SDS011;33408;52.062;11.722;2022-12-18T04:15:56;78.57;;;38.90;;
47669;SDS011;33408;52.062;11.722;2022-12-18T04:18:23;78.05;;;37.78;;
47669;SDS011;33408;52.062;11.722;2022-12-18T04:20:50;74.75;;;35.42;;
47669;SDS011;33408;52.062;11.722;2022-12-18T04:23:16;73.63;;;37.38;;
47669;SDS011;33408;52.062;11.722;2022-12-18T04:25:43;72.65;;;36.40;;
47669;SDS011;33408;52.062;11.722;2022-12-18T04:28:09;67.47;;;36.75;;
47669;SDS011;33408;52.062;11.722;2022-12-18T04:30:36;71.18;;;37.55;;
47669;SDS011;33408;52.062;11.722;2022-12-18T04:33:05;75.28;;;36.75;;
47669;SDS011;33408;52.062;11.722;2022-12-18T04:35:34;73.25;;;36.20;;
47669;SDS011;33408;52.062;11.722;2022-12-18T04:38:01;81.13;;;37.42;;
47669;SDS011;33408;52.062;11.722;2022-12-18T04:40:27;88.65;;;40.70;;
47669;SDS011;33408;52.062;11.722;2022-12-18T04:42:54;70.10;;;39.80;;
47669;SDS011;33408;52.062;11.722;2022-12-18T04:45:20;79.95;;;41.22;;
47669;SDS011;33408;52.062;11.722;2022-12-18T04:47:47;77.22;;;41.22;;
47669;SDS011;33408;52.062;11.722;2022-12-18T04:50:15;64.25;;;36.55;;
47669;SDS011;33408;52.062;11.722;2022-12-18T04:52:42;71.93;;;36.42;;
47669;SDS011;33408;52.062;11.722;2022-12-18T04:55:08;78.20;;;41.58;;
47669;SDS011;33408;52.062;11.722;2022-12-18T04:57:35;75.30;;;40.75;;
47669;SDS011;33408;52.062;11.722;2022-12-18T05:00:02;85.20;;;43.35;;
47669;SDS011;33408;52.062;11.722;2022-12-18T05:02:31;72.80;;;41.50;;
47669;SDS011;33408;52.062;11.722;2022-12-18T05:04:57;81.82;;;44.15;;
47669;SDS011;33408;52.062;11.722;2022-12-18T05:07:25;85.20;;;41.55;;
47669;SDS011;33408;52.062;11.722;2022-12-18T05:09:52;84.47;;;44.58;;
47669;SDS011;33408;52.062;11.722;2022-12-18T05:12:18;79.00;;;43.03;;
47669;SDS011;33408;52.062;11.722;2022-12-18T05:14:52;86.97;;;45.97;;
47669;SDS011;33408;52.062;11.722;2022-12-18T05:17:19;83.70;;;44.08;;
47669;SDS011;33408;52.062;11.722;2022-12-18T05:19:45;72.68;;;42.40;;
47669;SDS011;33408;52.062;11.722;2022-12-18T05:22:12;77.47;;;43.78;;
47669;SDS011;33408;52.062;11.722;2022-12-18T05:24:40;76.50;;;42.00;;
47669;SDS011;33408;52.062;11.722;2022-12-18T05:27:06;77.60;;;41.92;;
47669;SDS011;33408;52.062;11.722;2022-12-18T05:29:33;80.75;;;43.33;;
47669;SDS011;33408;52.062;11.722;2022-12-18T05:32:00;77.63;;;40.40;;
47669;SDS011;33408;52.062;11.722;2022-12-18T05:34:26;82.43;;;43.88;;
47669;SDS011;33408;52.062;11.722;2022-12-18T05:36:53;82.82;;;43.45;;
47669;SDS011;33408;52.062;11.722;2022-12-18T05:39:19;83.57;;;46.17;;
47669;SDS011;33408;52.062;11.722;2022-12-18T05:41:47;85.90;;;45.67;;
47669;SDS011;33408;52.062;11.722;2022-12-18T05:44:14;101.32;;;48.72;;
47669;SDS011;33408;52.062;11.722;2022-12-18T05:46:40;99.50;;;49.83;;
47669;SDS011;33408;52.062;11.722;2022-12-18T05:49:07;89.05;;;46.78;;
47669;SDS011;33408;52.062;11.722;2022-12-18T05:51:34;98.78;;;50.22;;
47669;SDS011;33408;52.062;11.722;2022-12-18T05:54:00;77.68;;;42.55;;
47669;SDS011;33408;52.062;11.722;2022-12-18T05:56:27;84.28;;;43.97;;
47669;SDS011;33408;52.062;11.722;2022-12-18T05:58:55;91.82;;;46.25;;
47669;SDS011;33408;52.062;11.722;2022-12-18T06:01:22;84.97;;;44.70;;
47669;SDS011;33408;52.062;11.722;2022-12-18T06:03:51;86.03;;;43.30;;
47669;SDS011;33408;52.062;11.722;2022-12-18T06:06:19;87.88;;;47.53;;
47669;SDS011;33408;52.062;11.722;2022-12-18T06:08:47;83.15;;;45.22;;
47669;SDS011;33408;52.062;11.722;2022-12-18T06:11:16;91.43;;;45.05;;
47669;SDS011;33408;52.062;11.722;2022-12-18T06:13:44;89.28;;;46.92;;
47669;SDS011;33408;52.062;11.722;2022-12-18T06:16:12;85.55;;;47.33;;
47669;SDS011;33408;52.062;11.722;2022-12-18T06:18:39;78.30;;;45.13;;
47669;SDS011;33408;52.062;11.722;2022-12-18T06:21:06;88.88;;;46.13;;
47669;SDS011;33408;52.062;11.722;2022-12-18T06:23:32;82.22;;;44.85;;
47669;SDS011;33408;52.062;11.722;2022-12-18T06:26:03;78.70;;;43.58;;
47669;SDS011;33408;52.062;11.722;2022-12-18T06:28:30;86.60;;;45.63;;
47669;SDS011;33408;52.062;11.722;2022-12-18T06:30:57;81.47;;;45.47;;
47669;SDS011;33408;52.062;11.722;2022-12-18T06:33:26;85.43;;;45.55;;
47669;SDS011;33408;52.062;11.722;2022-12-18T06:35:54;77.80;;;43.60;;
47669;SDS011;33408;52.062;11.722;2022-12-18T06:38:20;85.97;;;45.97;;
47669;SDS011;33408;52.062;11.722;2022-12-18T06:40:47;89.65;;;46.83;;
47669;SDS011;33408;52.062;11.722;2022-12-18T06:43:13;87.03;;;45.47;;
47669;SDS011;33408;52.062;11.722;2022-12-18T06:45:40;88.38;;;46.88;;
47669;SDS011;33408;52.062;11.722;2022-12-18T06:48:11;89.00;;;45.22;;
47669;SDS011;33408;52.062;11.722;2022-12-18T06:50:41;80.63;;;43.28;;
47669;SDS011;33408;52.062;11.722;2022-12-18T06:53:08;83.13;;;45.55;;
47669;SDS011;33408;52.062;11.722;2022-12-18T06:55:34;83.82;;;45.90;;
47669;SDS011;33408;52.062;11.722;2022-12-18T06:58:01;80.70;;;44.15;;
47669;SDS011;33408;52.062;11.722;2022-12-18T07:00:27;82.93;;;43.15;;
47669;SDS011;33408;52.062;11.722;2022-12-18T07:02:54;79.63;;;42.17;;
47669;SDS011;33408;52.062;11.722;2022-12-18T07:05:20;80.55;;;44.80;;
47669;SDS011;33408;52.062;11.722;2022-12-18T07:07:49;75.55;;;41.58;;
47669;SDS011;33408;52.062;11.722;2022-12-18T07:10:15;81.43;;;44.42;;
47669;SDS011;33408;52.062;11.722;2022-12-18T07:12:42;77.47;;;43.88;;
47669;SDS011;33408;52.062;11.722;2022-12-18T07:15:09;80.43;;;46.67;;
47669;SDS011;33408;52.062;11.722;2022-12-18T07:17:36;78.32;;;44.35;;
47669;SDS011;33408;52.062;11.722;2022-12-18T07:20:02;78.07;;;42.92;;
47669;SDS011;33408;52.062;11.722;2022-12-18T07:22:29;71.65;;;41.25;;
47669;SDS011;33408;52.062;11.722;2022-12-18T07:24:58;74.43;;;42.45;;
47669;SDS011;33408;52.062;11.722;2022-12-18T07:27:24;73.05;;;42.03;;
47669;SDS011;33408;52.062;11.722;2022-12-18T07:29:51;71.70;;;42.92;;
47669;SDS011;33408;52.062;11.722;2022-12-18T07:32:17;83.20;;;44.67;;
47669;SDS011;33408;52.062;11.722;2022-12-18T07:34:44;78.07;;;43.38;;
47669;SDS011;33408;52.062;11.722;2022-12-18T07:37:11;80.68;;;48.20;;
47669;SDS011;33408;52.062;11.722;2022-12-18T07:39:37;74.80;;;41.90;;
47669;SDS011;33408;52.062;11.722;2022-12-18T07:42:08;68.03;;;39.78;;
47669;SDS011;33408;52.062;11.722;2022-12-18T07:44:52;79.65;;;42.25;;
47669;SDS011;33408;52.062;11.722;2022-12-18T07:47:19;69.38;;;38.78;;
47669;SDS011;33408;52.062;11.722;2022-12-18T07:49:45;69.95;;;40.45;;
47669;SDS011;33408;52.062;11.722;2022-12-18T07:52:12;67.43;;;39.42;;
47669;SDS011;33408;52.062;11.722;2022-12-18T07:54:38;56.00;;;35.47;;
47669;SDS011;33408;52.062;11.722;2022-12-18T07:57:05;61.13;;;36.70;;
47669;SDS011;33408;52.062;11.722;2022-12-18T07:59:34;69.60;;;38.67;;
47669;SDS011;33408;52.062;11.722;2022-12-18T08:02:01;63.47;;;37.85;;
47669;SDS011;33408;52.062;11.722;2022-12-18T08:04:27;65.15;;;38.63;;
47669;SDS011;33408;52.062;11.722;2022-12-18T08:06:54;65.30;;;39.25;;
47669;SDS011;33408;52.062;11.722;2022-12-18T08:09:20;68.93;;;38.75;;
47669;SDS011;33408;52.062;11.722;2022-12-18T08:11:47;64.85;;;39.55;;
47669;SDS011;33408;52.062;11.722;2022-12-18T08:14:13;69.25;;;38.85;;
47669;SDS011;33408;52.062;11.722;2022-12-18T08:16:42;68.18;;;39.10;;
47669;SDS011;33408;52.062;11.722;2022-12-18T08:19:11;59.63;;;36.20;;
47669;SDS011;33408;52.062;11.722;2022-12-18T08:21:41;67.72;;;39.90;;
47669;SDS011;33408;52.062;11.722;2022-12-18T08:24:11;67.78;;;39.75;;
47669;SDS011;33408;52.062;11.722;2022-12-18T08:26:37;70.38;;;38.80;;
47669;SDS011;33408;52.062;11.722;2022-12-18T08:29:04;66.03;;;37.53;;
47669;SDS011;33408;52.062;11.722;2022-12-18T08:31:30;63.15;;;36.58;;
47669;SDS011;33408;52.062;11.722;2022-12-18T08:33:59;64.70;;;36.72;;
47669;SDS011;33408;52.062;11.722;2022-12-18T08:36:25;64.18;;;39.50;;
47669;SDS011;33408;52.062;11.722;2022-12-18T08:38:52;68.90;;;37.42;;
47669;SDS011;33408;52.062;11.722;2022-12-18T08:41:19;64.20;;;37.47;;
47669;SDS011;33408;52.062;11.722;2022-12-18T08:43:46;56.97;;;34.53;;
47669;SDS011;33408;52.062;11.722;2022-12-18T08:46:34;62.80;;;36.95;;
47669;SDS011;33408;52.062;11.722;2022-12-18T08:49:03;65.80;;;37.25;;
47669;SDS011;33408;52.062;11.722;2022-12-18T08:51:30;57.83;;;36.95;;
47669;SDS011;33408;52.062;11.722;2022-12-18T08:53:56;61.20;;;36.70;;
47669;SDS011;33408;52.062;11.722;2022-12-18T08:56:23;56.13;;;35.95;;
47669;SDS011;33408;52.062;11.722;2022-12-18T08:58:51;63.10;;;37.50;;
47669;SDS011;33408;52.062;11.722;2022-12-18T09:01:18;64.38;;;37.55;;
47669;SDS011;33408;52.062;11.722;2022-12-18T09:03:45;55.47;;;35.65;;
47669;SDS011;33408;52.062;11.722;2022-12-18T09:06:15;57.33;;;35.08;;
47669;SDS011;33408;52.062;11.722;2022-12-18T09:08:42;63.88;;;38.38;;
47669;SDS011;33408;52.062;11.722;2022-12-18T09:11:11;60.95;;;38.40;;
47669;SDS011;33408;52.062;11.722;2022-12-18T09:13:40;57.63;;;36.67;;
47669;SDS011;33408;52.062;11.722;2022-12-18T09:16:06;61.83;;;35.53;;
47669;SDS011;33408;52.062;11.722;2022-12-18T09:18:33;66.68;;;41.33;;
47669;SDS011;33408;52.062;11.722;2022-12-18T09:20:59;54.72;;;33.60;;
47669;SDS011;33408;52.062;11.722;2022-12-18T09:23:34;56.25;;;33.47;;
47669;SDS011;33408;52.062;11.722;2022-12-18T09:26:01;57.97;;;34.67;;
47669;SDS011;33408;52.062;11.722;2022-12-18T09:28:27;52.38;;;32.60;;
47669;SDS011;33408;52.062;11.722;2022-12-18T09:30:54;60.90;;;35.20;;
47669;SDS011;33408;52.062;11.722;2022-12-18T09:33:21;58.28;;;34.80;;
47669;SDS011;33408;52.062;11.722;2022-12-18T09:35:47;52.80;;;34.45;;
47669;SDS011;33408;52.062;11.722;2022-12-18T09:38:15;54.15;;;33.10;;
47669;SDS011;33408;52.062;11.722;2022-12-18T09:40:45;57.47;;;37.58;;
47669;SDS011;33408;52.062;11.722;2022-12-18T09:43:17;56.28;;;33.42;;
47669;SDS011;33408;52.062;11.722;2022-12-18T09:45:48;46.50;;;31.08;;
47669;SDS011;33408;52.062;11.722;2022-12-18T09:48:20;53.38;;;31.30;;
47669;SDS011;33408;52.062;11.722;2022-12-18T09:50:50;55.28;;;34.15;;
47669;SDS011;33408;52.062;11.722;2022-12-18T09:53:22;44.38;;;25.63;;
47669;SDS011;33408;52.062;11.722;2022-12-18T09:55:54;55.58;;;32.17;;
47669;SDS011;33408;52.062;11.722;2022-12-18T09:58:24;51.40;;;32.20;;
47669;SDS011;33408;52.062;11.722;2022-12-18T10:00:55;56.70;;;33.25;;
47669;SDS011;33408;52.062;11.722;2022-12-18T10:03:22;48.45;;;30.42;;
47669;SDS011;33408;52.062;11.722;2022-12-18T10:05:52;45.92;;;29.33;;
47669;SDS011;33408;52.062;11.722;2022-12-18T10:08:30;50.88;;;32.08;;
47669;SDS011;33408;52.062;11.722;2022-12-18T10:13:54;45.25;;;28.15;;
47669;SDS011;33408;52.062;11.722;2022-12-18T10:16:25;43.15;;;27.55;;
47669;SDS011;33408;52.062;11.722;2022-12-18T10:19:10;44.33;;;27.73;;
47669;SDS011;33408;52.062;11.722;2022-12-18T10:21:48;43.10;;;27.98;;
47669;SDS011;33408;52.062;11.722;2022-12-18T10:24:22;41.67;;;28.45;;
47669;SDS011;33408;52.062;11.722;2022-12-18T10:26:58;42.50;;;29.40;;
47669;SDS011;33408;52.062;11.722;2022-12-18T10:29:33;43.75;;;27.05;;
47669;SDS011;33408;52.062;11.722;2022-12-18T10:32:00;44.00;;;27.10;;
47669;SDS011;33408;52.062;11.722;2022-12-18T10:34:27;41.72;;;28.70;;
47669;SDS011;33408;52.062;11.722;2022-12-18T10:36:53;45.78;;;27.92;;
47669;SDS011;33408;52.062;11.722;2022-12-18T10:39:21;41.88;;;28.10;;
47669;SDS011;33408;52.062;11.722;2022-12-18T10:41:50;41.42;;;27.85;;
47669;SDS011;33408;52.062;11.722;2022-12-18T10:44:18;43.33;;;26.58;;
47669;SDS011;33408;52.062;11.722;2022-12-18T10:46:46;39.35;;;25.50;;
47669;SDS011;33408;52.062;11.722;2022-12-18T10:49:18;46.20;;;26.98;;
47669;SDS011;33408;52.062;11.722;2022-12-18T10:54:14;34.97;;;24.35;;
47669;SDS011;33408;52.062;11.722;2022-12-18T10:56:44;39.55;;;26.30;;
47669;SDS011;33408;52.062;11.722;2022-12-18T10:59:12;42.88;;;26.48;;
47669;SDS011;33408;52.062;11.722;2022-12-18T11:01:48;40.92;;;27.15;;
47669;SDS011;33408;52.062;11.722;2022-12-18T11:04:18;43.42;;;29.33;;
47669;SDS011;33408;52.062;11.722;2022-12-18T11:06:52;45.10;;;28.65;;
47669;SDS011;33408;52.062;11.722;2022-12-18T11:09:21;40.97;;;28.02;;
47669;SDS011;33408;52.062;11.722;2022-12-18T11:11:54;45.10;;;28.83;;
47669;SDS011;33408;52.062;11.722;2022-12-18T11:14:22;42.75;;;28.65;;
47669;SDS011;33408;52.062;11.722;2022-12-18T11:16:52;45.40;;;28.13;;
47669;SDS011;33408;52.062;11.722;2022-12-18T11:19:25;40.47;;;27.75;;
47669;SDS011;33408;52.062;11.722;2022-12-18T11:21:56;40.72;;;26.10;;
47669;SDS011;33408;52.062;11.722;2022-12-18T11:24:25;41.70;;;28.00;;
47669;SDS011;33408;52.062;11.722;2022-12-18T11:26:55;42.35;;;28.40;;
47669;SDS011;33408;52.062;11.722;2022-12-18T11:29:27;44.00;;;27.05;;
47669;SDS011;33408;52.062;11.722;2022-12-18T11:32:19;40.60;;;25.83;;
47669;SDS011;33408;52.062;11.722;2022-12-18T11:34:55;41.03;;;26.08;;
47669;SDS011;33408;52.062;11.722;2022-12-18T11:37:28;41.25;;;26.48;;
47669;SDS011;33408;52.062;11.722;2022-12-18T11:39:56;45.25;;;29.02;;
47669;SDS011;33408;52.062;11.722;2022-12-18T11:42:27;43.77;;;27.93;;
47669;SDS011;33408;52.062;11.722;2022-12-18T11:45:03;38.42;;;27.10;;
47669;SDS011;33408;52.062;11.722;2022-12-18T11:47:49;45.95;;;28.05;;
47669;SDS011;33408;52.062;11.722;2022-12-18T11:50:21;43.83;;;28.33;;
47669;SDS011;33408;52.062;11.722;2022-12-18T11:52:51;41.63;;;26.67;;
47669;SDS011;33408;52.062;11.722;2022-12-18T11:55:19;47.30;;;29.92;;
47669;SDS011;33408;52.062;11.722;2022-12-18T11:57:55;42.55;;;28.95;;
47669;SDS011;33408;52.062;11.722;2022-12-18T12:00:29;48.88;;;33.40;;
47669;SDS011;33408;52.062;11.722;2022-12-18T12:03:06;57.63;;;36.55;;
47669;SDS011;33408;52.062;11.722;2022-12-18T12:05:56;44.85;;;30.50;;
47669;SDS011;33408;52.062;11.722;2022-12-18T12:08:37;41.55;;;27.15;;
47669;SDS011;33408;52.062;11.722;2022-12-18T12:11:16;42.58;;;28.83;;
47669;SDS011;33408;52.062;11.722;2022-12-18T12:13:55;44.53;;;28.73;;
47669;SDS011;33408;52.062;11.722;2022-12-18T12:16:34;39.65;;;28.13;;
47669;SDS011;33408;52.062;11.722;2022-12-18T12:19:15;39.17;;;27.45;;
47669;SDS011;33408;52.062;11.722;2022-12-18T12:21:57;35.95;;;25.35;;
47669;SDS011;33408;52.062;11.722;2022-12-18T12:24:36;35.40;;;24.50;;
47669;SDS011;33408;52.062;11.722;2022-12-18T12:27:14;35.67;;;24.90;;
47669;SDS011;33408;52.062;11.722;2022-12-18T12:29:50;29.00;;;21.73;;
47669;SDS011;33408;52.062;11.722;2022-12-18T12:32:32;32.83;;;23.25;;
47669;SDS011;33408;52.062;11.722;2022-12-18T12:35:12;34.20;;;21.98;;
47669;SDS011;33408;52.062;11.722;2022-12-18T12:37:48;28.55;;;19.90;;
47669;SDS011;33408;52.062;11.722;2022-12-18T12:40:26;33.38;;;21.73;;
47669;SDS011;33408;52.062;11.722;2022-12-18T12:42:55;26.85;;;19.77;;
47669;SDS011;33408;52.062;11.722;2022-12-18T12:45:42;30.80;;;20.52;;
47669;SDS011;33408;52.062;11.722;2022-12-18T12:48:15;34.28;;;18.92;;
47669;SDS011;33408;52.062;11.722;2022-12-18T12:50:49;29.35;;;19.15;;
47669;SDS011;33408;52.062;11.722;2022-12-18T12:53:20;29.17;;;20.05;;
47669;SDS011;33408;52.062;11.722;2022-12-18T12:55:52;24.95;;;18.73;;
47669;SDS011;33408;52.062;11.722;2022-12-18T12:58:23;25.50;;;18.80;;
47669;SDS011;33408;52.062;11.722;2022-12-18T13:01:00;29.52;;;21.67;;
47669;SDS011;33408;52.062;11.722;2022-12-18T13:03:35;29.17;;;21.25;;
47669;SDS011;33408;52.062;11.722;2022-12-18T13:06:13;29.85;;;22.58;;
47669;SDS011;33408;52.062;11.722;2022-12-18T13:08:52;35.50;;;23.42;;
47669;SDS011;33408;52.062;11.722;2022-12-18T13:11:37;32.58;;;23.92;;
47669;SDS011;33408;52.062;11.722;2022-12-18T13:14:24;32.65;;;24.10;;
47669;SDS011;33408;52.062;11.722;2022-12-18T13:17:14;32.45;;;23.75;;
47669;SDS011;33408;52.062;11.722;2022-12-18T13:20:09;33.83;;;23.08;;
47669;SDS011;33408;52.062;11.722;2022-12-18T13:22:39;34.40;;;23.63;;
47669;SDS011;33408;52.062;11.722;2022-12-18T13:25:28;36.05;;;25.00;;
47669;SDS011;33408;52.062;11.722;2022-12-18T13:28:00;35.15;;;23.02;;
47669;SDS011;33408;52.062;11.722;2022-12-18T13:30:44;38.17;;;26.25;;
47669;SDS011;33408;52.062;11.722;2022-12-18T13:36:26;38.47;;;24.10;;
47669;SDS011;33408;52.062;11.722;2022-12-18T13:45:38;50.22;;;31.50;;
47669;SDS011;33408;52.062;11.722;2022-12-18T13:48:14;43.78;;;25.88;;
47669;SDS011;33408;52.062;11.722;2022-12-18T13:50:43;44.88;;;28.25;;
47669;SDS011;33408;52.062;11.722;2022-12-18T13:53:16;41.83;;;27.63;;
47669;SDS011;33408;52.062;11.722;2022-12-18T13:55:47;47.33;;;26.10;;
47669;SDS011;33408;52.062;11.722;2022-12-18T13:58:15;46.85;;;26.67;;
47669;SDS011;33408;52.062;11.722;2022-12-18T14:00:43;48.10;;;28.73;;
47669;SDS011;33408;52.062;11.722;2022-12-18T14:03:16;51.80;;;29.38;;
47669;SDS011;33408;52.062;11.722;2022-12-18T14:05:45;53.60;;;28.17;;
47669;SDS011;33408;52.062;11.722;2022-12-18T14:08:12;48.72;;;28.42;;
47669;SDS011;33408;52.062;11.722;2022-12-18T14:10:41;50.92;;;28.65;;
47669;SDS011;33408;52.062;11.722;2022-12-18T14:13:09;47.67;;;29.17;;
47669;SDS011;33408;52.062;11.722;2022-12-18T14:15:41;51.55;;;30.35;;
47669;SDS011;33408;52.062;11.722;2022-12-18T14:18:15;47.53;;;27.25;;
47669;SDS011;33408;52.062;11.722;2022-12-18T14:20:48;51.15;;;29.92;;
47669;SDS011;33408;52.062;11.722;2022-12-18T14:23:29;56.38;;;30.17;;
47669;SDS011;33408;52.062;11.722;2022-12-18T14:25:57;48.72;;;28.15;;
47669;SDS011;33408;52.062;11.722;2022-12-18T14:28:24;57.58;;;32.00;;
47669;SDS011;33408;52.062;11.722;2022-12-18T14:30:53;47.00;;;29.98;;
47669;SDS011;33408;52.062;11.722;2022-12-18T14:33:21;59.88;;;31.15;;
47669;SDS011;33408;52.062;11.722;2022-12-18T14:35:53;56.30;;;31.50;;
47669;SDS011;33408;52.062;11.722;2022-12-18T14:38:23;52.85;;;30.45;;
47669;SDS011;33408;52.062;11.722;2022-12-18T14:40:52;60.58;;;34.22;;
47669;SDS011;33408;52.062;11.722;2022-12-18T14:43:23;48.95;;;31.95;;